African Highway — 3EOD8 — position and weather

sailwx.info

Track history (hours):
 
Tides and Currents Weather Stations Pressure Air Temp Water Temp Dewpoint Dewpoint Depression Visibility Wind Speed Wind Dir Waves Ship Positions

African Highway

Last reported at 2015-Jan-25 14:29 UTC. Time now 2015-Jan-25 16:20 UTC.
Position N 53°52' E 002°31'.

Length 154.5 m; beam 27.6 m.

Type: Cargo ship. MMSI: 353633000.

Date/timePositionNaut miles runAvg speedWind from/ knotsBaromVisibWave heightAir tempDewpointWater temp
2015-Jan-25 14:29N 53°52' E 002°31'6415.9
2015-Jan-25 10:28N 53°35' E 000°47'1415.9
2015-Jan-25 09:33N 53°32' E 000°23'1110.8
2015-Jan-25 08:33N 53°34' E 000°05'5 4.8
2015-Jan-25 07:26N 53°35' W 000°04'0 0.0
2015-Jan-25 06:33N 53°35' W 000°04'0 0.0
2015-Jan-25 05:32N 53°35' W 000°04'0 0.0
2015-Jan-25 04:29N 53°35' W 000°04'0 0.0
2015-Jan-25 03:32N 53°35' W 000°04'0 0.0
2015-Jan-25 02:32N 53°35' W 000°04'0 0.0
2015-Jan-25 01:32N 53°35' W 000°04'0 0.0
2015-Jan-25 00:32N 53°35' W 000°04'0 0.0
2015-Jan-24 23:32N 53°35' W 000°04'0 0.0
2015-Jan-24 22:32N 53°35' W 000°04'0 0.0
2015-Jan-24 21:32N 53°35' W 000°04'0 0.0
2015-Jan-24 20:32N 53°35' W 000°04'4 3.9
2015-Jan-24 19:33N 53°35' E 000°02'10 9.8
2015-Jan-24 18:33N 53°33' E 000°19'6 5.9
2015-Jan-24 17:33N 53°32' E 000°28'7 6.9
2015-Jan-24 16:33N 53°31' E 000°40'3 2.6
2015-Jan-24 15:32N 53°31' E 000°35'6 6.1
2015-Jan-24 14:32N 53°31' E 000°46'7 7.4
2015-Jan-24 13:33N 53°31' E 000°33'8 7.8
2015-Jan-24 12:31N 53°35' E 000°45'15011.5
2015-Jan-23 23:29N 54°02' E 004°56'1212.8
2015-Jan-23 22:33N 53°59' E 005°15'1313.2
2015-Jan-23 21:33N 53°55' E 005°37'1413.5
2015-Jan-23 20:33N 53°53' E 005°60'1312.7
2015-Jan-23 19:31N 53°46' E 006°19'1111.0
2015-Jan-23 18:33N 53°37' E 006°28'1515.2
2015-Jan-23 17:33N 53°29' E 006°50'1312.7
2015-Jan-23 16:33N 53°19' E 007°04'5 4.7
2015-Jan-23 15:33N 53°20' E 007°11'0 0.5
2015-Jan-23 14:32N 53°21' E 007°12'0 0.0
2015-Jan-23 13:32N 53°21' E 007°12'0 0.0
2015-Jan-23 12:32N 53°21' E 007°12'0 0.0
2015-Jan-23 11:32N 53°21' E 007°12'0 0.0
2015-Jan-23 10:32N 53°21' E 007°12'0 0.0
2015-Jan-23 09:32N 53°21' E 007°12'0 0.0
2015-Jan-23 08:32N 53°21' E 007°12'0 0.0
2015-Jan-23 07:32N 53°21' E 007°12'0 0.0
2015-Jan-23 06:32N 53°21' E 007°12'0 0.0
2015-Jan-23 05:32N 53°21' E 007°12'0 0.0
2015-Jan-23 04:32N 53°21' E 007°12'0 0.0
2015-Jan-23 03:33N 53°21' E 007°12'0 0.0
2015-Jan-23 02:32N 53°21' E 007°12'0 0.0
2015-Jan-23 01:20N 53°21' E 007°12'0 0.0
2015-Jan-23 00:32N 53°21' E 007°12'0 0.0
2015-Jan-22 23:32N 53°21' E 007°12'0 0.0
2015-Jan-22 22:32N 53°21' E 007°12'0 0.0
2015-Jan-22 21:32N 53°21' E 007°12'0 0.0
2015-Jan-22 20:32N 53°21' E 007°12'0 0.0
2015-Jan-22 19:32N 53°21' E 007°12'0 0.0
2015-Jan-22 18:32N 53°21' E 007°12'0 0.0
2015-Jan-22 17:32N 53°21' E 007°12'0 0.0
2015-Jan-22 16:32N 53°21' E 007°12'0 0.0
2015-Jan-22 15:32N 53°21' E 007°12'0 0.0
2015-Jan-22 14:32N 53°21' E 007°12'0 0.0
2015-Jan-22 13:32N 53°21' E 007°12'3 2.6
2015-Jan-22 12:33N 53°20' E 007°08'6 5.7
2015-Jan-22 11:33N 53°22' E 006°59'1414.2
2015-Jan-22 10:33N 53°32' E 006°43'1615.5
2015-Jan-22 09:33N 53°37' E 006°18'1111.3
2015-Jan-22 08:34N 53°42' E 006°01'1413.5
2015-Jan-22 07:33N 53°54' E 005°48'1615.5
2015-Jan-22 06:33N 53°57' E 005°22'1515.3
2015-Jan-22 05:33N 54°01' E 004°57'1514.9
2015-Jan-22 04:32N 53°59' E 004°31'13614.7
2015-Jan-21 19:17N 53°35' E 000°44'1115.8
2015-Jan-21 18:34N 53°32' E 000°26'1111.0
2015-Jan-21 17:33N 53°33' E 000°07'7 6.5
2015-Jan-21 16:30N 53°35' W 000°04'0 0.0
2015-Jan-21 15:33N 53°35' W 000°04'0 0.0
2015-Jan-21 14:33N 53°35' W 000°04'0 0.0
2015-Jan-21 13:33N 53°35' W 000°04'0 0.0
2015-Jan-21 12:33N 53°35' W 000°04'0 0.0
2015-Jan-21 11:33N 53°35' W 000°04'0 0.0
2015-Jan-21 10:33N 53°35' W 000°04'0 0.0
2015-Jan-21 09:33N 53°35' W 000°04'0 0.0
2015-Jan-21 08:33N 53°35' W 000°04'0 0.0
2015-Jan-21 07:33N 53°35' W 000°04'0 0.0
2015-Jan-21 06:33N 53°35' W 000°04'1 1.1
2015-Jan-21 05:33N 53°35' W 000°02'9 8.8
2015-Jan-21 04:33N 53°33' E 000°12'6 6.1
2015-Jan-21 03:33N 53°33' E 000°23'3 3.4
2015-Jan-21 02:33N 53°33' E 000°28'1111.3
2015-Jan-21 01:33N 53°35' E 000°47'143 9.0
2015-Jan-20 09:33N 54°02' E 004°46'1414.3
2015-Jan-20 08:33N 53°59' E 005°10'1414.1
2015-Jan-20 07:33N 53°56' E 005°33'1413.9
2015-Jan-20 06:34N 53°53' E 005°56'1412.1
2015-Jan-20 05:22N 53°47' E 006°18'911.4
2015-Jan-20 04:33N 53°38' E 006°23'1111.2
2015-Jan-20 03:33N 53°34' E 006°40'1515.0
2015-Jan-20 02:34N 53°23' E 006°58'8 2.5
2015-Jan-19 23:31N 53°20' E 007°10'0 0.0
2015-Jan-19 22:31N 53°20' E 007°10'0 0.0
2015-Jan-19 21:31N 53°20' E 007°10'0 0.0
2015-Jan-19 20:31N 53°20' E 007°10'0 0.0
2015-Jan-19 19:31N 53°20' E 007°10'0 0.0
2015-Jan-19 18:31N 53°20' E 007°10'0 0.0
2015-Jan-19 17:31N 53°20' E 007°10'0 0.0
2015-Jan-19 16:31N 53°20' E 007°10'0 0.0
2015-Jan-19 15:31N 53°20' E 007°10'0 0.0
2015-Jan-19 14:31N 53°20' E 007°10'0 0.0
2015-Jan-19 13:31N 53°20' E 007°10'0 0.0
2015-Jan-19 12:31N 53°20' E 007°10'0 0.0
2015-Jan-19 11:31N 53°20' E 007°10'0 0.0
2015-Jan-19 10:31N 53°20' E 007°10'0 0.1
2015-Jan-19 09:33N 53°20' E 007°10'7 6.5
2015-Jan-19 08:33N 53°21' E 006°59'1212.3
2015-Jan-19 07:33N 53°31' E 006°46'1212.4
2015-Jan-19 06:33N 53°37' E 006°28'1110.6
2015-Jan-19 05:33N 53°38' E 006°10'1313.5
2015-Jan-19 04:33N 53°42' E 005°48'1615.8
2015-Jan-19 03:33N 53°55' E 005°35'1616.0
2015-Jan-19 02:33N 53°59' E 005°08'1615.5
2015-Jan-19 01:32N 54°00' E 004°41'14315.3
2015-Jan-18 16:14N 53°35' E 000°43'1115.8
2015-Jan-18 15:33N 53°32' E 000°26'1111.6
2015-Jan-18 14:33N 53°34' E 000°06'6 6.3
2015-Jan-18 13:32N 53°35' W 000°04'0 0.0
2015-Jan-18 12:32N 53°35' W 000°04'0 0.0
2015-Jan-18 11:32N 53°35' W 000°04'0 0.0
2015-Jan-18 10:32N 53°35' W 000°04'0 0.0
2015-Jan-18 09:32N 53°35' W 000°04'0 0.0
2015-Jan-18 08:32N 53°35' W 000°04'0 0.0
2015-Jan-18 07:33N 53°35' W 000°04'0 0.0
2015-Jan-18 06:32N 53°35' W 000°04'0 0.0
2015-Jan-18 05:32N 53°35' W 000°04'0 0.0
2015-Jan-18 04:32N 53°35' W 000°04'0 0.0
2015-Jan-18 03:32N 53°35' W 000°04'0 0.0
2015-Jan-18 02:26N 53°35' W 000°04'0 0.0
2015-Jan-18 01:32N 53°35' W 000°04'0 0.0
2015-Jan-18 00:29N 53°35' W 000°04'0 0.0
2015-Jan-17 23:32N 53°35' W 000°04'0 0.0
2015-Jan-17 22:32N 53°35' W 000°04'0 0.0
2015-Jan-17 21:32N 53°35' W 000°04'0 0.0
2015-Jan-17 20:32N 53°35' W 000°04'0 0.0
2015-Jan-17 19:32N 53°35' W 000°04'0 0.0
2015-Jan-17 18:32N 53°35' W 000°04'0 0.0
2015-Jan-17 17:32N 53°35' W 000°04'0 0.0
2015-Jan-17 16:32N 53°35' W 000°04'0 0.0
2015-Jan-17 15:32N 53°35' W 000°04'0 0.2
2015-Jan-17 14:33N 53°35' W 000°04'9 8.9
2015-Jan-17 13:34N 53°33' E 000°11'9 9.3
2015-Jan-17 12:33N 53°34' E 000°26'10 8.9
2015-Jan-17 11:28N 53°34' E 000°43'3 3.1
2015-Jan-17 10:32N 53°34' E 000°48'14013.9
2015-Jan-17 00:27N 54°03' E 004°40'1314.1
2015-Jan-16 23:33N 54°00' E 005°01'1413.8
2015-Jan-16 22:32N 53°57' E 005°24'1414.1
2015-Jan-16 21:33N 53°54' E 005°47'1414.1
2015-Jan-16 20:33N 53°51' E 006°10'1312.8
2015-Jan-16 19:32N 53°40' E 006°22'1010.3
2015-Jan-16 18:33N 53°35' E 006°37'1212.2
2015-Jan-16 17:34N 53°27' E 006°53'1010.3
2015-Jan-16 16:33N 53°19' E 007°04'5 4.6
2015-Jan-16 15:32N 53°20' E 007°11'0 0.1
2015-Jan-16 14:33N 53°20' E 007°11'0 0.4
2015-Jan-16 13:32N 53°21' E 007°12'0 0.0
2015-Jan-16 12:32N 53°21' E 007°12'0 0.0
2015-Jan-16 11:32N 53°21' E 007°12'0 0.0
2015-Jan-16 10:32N 53°21' E 007°12'0 0.0
2015-Jan-16 09:32N 53°21' E 007°12'0 0.0
2015-Jan-16 08:32N 53°21' E 007°12'0 0.0
2015-Jan-16 07:32N 53°21' E 007°12'0 0.0
2015-Jan-16 06:32N 53°21' E 007°12'0 0.0
2015-Jan-16 05:32N 53°21' E 007°12'0 0.0
2015-Jan-16 04:32N 53°21' E 007°12'0 0.0
2015-Jan-16 03:32N 53°21' E 007°12'0 0.0
2015-Jan-16 02:32N 53°21' E 007°12'0 0.0
2015-Jan-16 01:32N 53°21' E 007°12'0 0.0
2015-Jan-16 00:32N 53°21' E 007°12'0 0.0
2015-Jan-15 23:32N 53°21' E 007°12'0 0.0
2015-Jan-15 22:32N 53°21' E 007°12'0 0.0
2015-Jan-15 21:32N 53°21' E 007°12'0 0.0
2015-Jan-15 20:32N 53°21' E 007°12'0 0.0
2015-Jan-15 19:32N 53°21' E 007°12'0 0.2
2015-Jan-15 18:33N 53°20' E 007°12'3 2.6
2015-Jan-15 17:33N 53°20' E 007°07'9 9.2
2015-Jan-15 16:33N 53°26' E 006°55'1414.5
2015-Jan-15 15:34N 53°35' E 006°37'1312.5
2015-Jan-15 14:34N 53°39' E 006°17'  
Track history (hours):
 
Tides and Currents Weather Stations Pressure Air Temp Water Temp Dewpoint Dewpoint Depression Visibility Wind Speed Wind Dir Waves Ship Positions

African Highway

Last reported at 2015-Jan-25 14:29 UTC. Time now 2015-Jan-25 16:20 UTC.
Position N 53°52' E 002°31'.

Length 154.5 m; beam 27.6 m.

Type: Cargo ship. MMSI: 353633000.

Date/timePositionNaut miles runAvg speedWind from/ knotsBaromVisibWave heightAir tempDewpointWater temp
2015-Jan-25 14:29N 53°52' E 002°31'6415.9
2015-Jan-25 10:28N 53°35' E 000°47'1415.9
2015-Jan-25 09:33N 53°32' E 000°23'1110.8
2015-Jan-25 08:33N 53°34' E 000°05'5 4.8
2015-Jan-25 07:26N 53°35' W 000°04'0 0.0
2015-Jan-25 06:33N 53°35' W 000°04'0 0.0
2015-Jan-25 05:32N 53°35' W 000°04'0 0.0
2015-Jan-25 04:29N 53°35' W 000°04'0 0.0
2015-Jan-25 03:32N 53°35' W 000°04'0 0.0
2015-Jan-25 02:32N 53°35' W 000°04'0 0.0
2015-Jan-25 01:32N 53°35' W 000°04'0 0.0
2015-Jan-25 00:32N 53°35' W 000°04'0 0.0
2015-Jan-24 23:32N 53°35' W 000°04'0 0.0
2015-Jan-24 22:32N 53°35' W 000°04'0 0.0
2015-Jan-24 21:32N 53°35' W 000°04'0 0.0
2015-Jan-24 20:32N 53°35' W 000°04'4 3.9
2015-Jan-24 19:33N 53°35' E 000°02'10 9.8
2015-Jan-24 18:33N 53°33' E 000°19'6 5.9
2015-Jan-24 17:33N 53°32' E 000°28'7 6.9
2015-Jan-24 16:33N 53°31' E 000°40'3 2.6
2015-Jan-24 15:32N 53°31' E 000°35'6 6.1
2015-Jan-24 14:32N 53°31' E 000°46'7 7.4
2015-Jan-24 13:33N 53°31' E 000°33'8 7.8
2015-Jan-24 12:31N 53°35' E 000°45'15011.5
2015-Jan-23 23:29N 54°02' E 004°56'1212.8
2015-Jan-23 22:33N 53°59' E 005°15'1313.2
2015-Jan-23 21:33N 53°55' E 005°37'1413.5
2015-Jan-23 20:33N 53°53' E 005°60'1312.7
2015-Jan-23 19:31N 53°46' E 006°19'1111.0
2015-Jan-23 18:33N 53°37' E 006°28'1515.2
2015-Jan-23 17:33N 53°29' E 006°50'1312.7
2015-Jan-23 16:33N 53°19' E 007°04'5 4.7
2015-Jan-23 15:33N 53°20' E 007°11'0 0.5
2015-Jan-23 14:32N 53°21' E 007°12'0 0.0
2015-Jan-23 13:32N 53°21' E 007°12'0 0.0
2015-Jan-23 12:32N 53°21' E 007°12'0 0.0
2015-Jan-23 11:32N 53°21' E 007°12'0 0.0
2015-Jan-23 10:32N 53°21' E 007°12'0 0.0
2015-Jan-23 09:32N 53°21' E 007°12'0 0.0
2015-Jan-23 08:32N 53°21' E 007°12'0 0.0
2015-Jan-23 07:32N 53°21' E 007°12'0 0.0
2015-Jan-23 06:32N 53°21' E 007°12'0 0.0
2015-Jan-23 05:32N 53°21' E 007°12'0 0.0
2015-Jan-23 04:32N 53°21' E 007°12'0 0.0
2015-Jan-23 03:33N 53°21' E 007°12'0 0.0
2015-Jan-23 02:32N 53°21' E 007°12'0 0.0
2015-Jan-23 01:20N 53°21' E 007°12'0 0.0
2015-Jan-23 00:32N 53°21' E 007°12'0 0.0
2015-Jan-22 23:32N 53°21' E 007°12'0 0.0
2015-Jan-22 22:32N 53°21' E 007°12'0 0.0
2015-Jan-22 21:32N 53°21' E 007°12'0 0.0
2015-Jan-22 20:32N 53°21' E 007°12'0 0.0
2015-Jan-22 19:32N 53°21' E 007°12'0 0.0
2015-Jan-22 18:32N 53°21' E 007°12'0 0.0
2015-Jan-22 17:32N 53°21' E 007°12'0 0.0
2015-Jan-22 16:32N 53°21' E 007°12'0 0.0
2015-Jan-22 15:32N 53°21' E 007°12'0 0.0
2015-Jan-22 14:32N 53°21' E 007°12'0 0.0
2015-Jan-22 13:32N 53°21' E 007°12'3 2.6
2015-Jan-22 12:33N 53°20' E 007°08'6 5.7
2015-Jan-22 11:33N 53°22' E 006°59'1414.2
2015-Jan-22 10:33N 53°32' E 006°43'1615.5
2015-Jan-22 09:33N 53°37' E 006°18'1111.3
2015-Jan-22 08:34N 53°42' E 006°01'1413.5
2015-Jan-22 07:33N 53°54' E 005°48'1615.5
2015-Jan-22 06:33N 53°57' E 005°22'1515.3
2015-Jan-22 05:33N 54°01' E 004°57'1514.9
2015-Jan-22 04:32N 53°59' E 004°31'13614.7
2015-Jan-21 19:17N 53°35' E 000°44'1115.8
2015-Jan-21 18:34N 53°32' E 000°26'1111.0
2015-Jan-21 17:33N 53°33' E 000°07'7 6.5
2015-Jan-21 16:30N 53°35' W 000°04'0 0.0
2015-Jan-21 15:33N 53°35' W 000°04'0 0.0
2015-Jan-21 14:33N 53°35' W 000°04'0 0.0
2015-Jan-21 13:33N 53°35' W 000°04'0 0.0
2015-Jan-21 12:33N 53°35' W 000°04'0 0.0
2015-Jan-21 11:33N 53°35' W 000°04'0 0.0
2015-Jan-21 10:33N 53°35' W 000°04'0 0.0
2015-Jan-21 09:33N 53°35' W 000°04'0 0.0
2015-Jan-21 08:33N 53°35' W 000°04'0 0.0
2015-Jan-21 07:33N 53°35' W 000°04'0 0.0
2015-Jan-21 06:33N 53°35' W 000°04'1 1.1
2015-Jan-21 05:33N 53°35' W 000°02'9 8.8
2015-Jan-21 04:33N 53°33' E 000°12'6 6.1
2015-Jan-21 03:33N 53°33' E 000°23'3 3.4
2015-Jan-21 02:33N 53°33' E 000°28'1111.3
2015-Jan-21 01:33N 53°35' E 000°47'143 9.0
2015-Jan-20 09:33N 54°02' E 004°46'1414.3
2015-Jan-20 08:33N 53°59' E 005°10'1414.1
2015-Jan-20 07:33N 53°56' E 005°33'1413.9
2015-Jan-20 06:34N 53°53' E 005°56'1412.1
2015-Jan-20 05:22N 53°47' E 006°18'911.4
2015-Jan-20 04:33N 53°38' E 006°23'1111.2
2015-Jan-20 03:33N 53°34' E 006°40'1515.0
2015-Jan-20 02:34N 53°23' E 006°58'8 2.5
2015-Jan-19 23:31N 53°20' E 007°10'0 0.0
2015-Jan-19 22:31N 53°20' E 007°10'0 0.0
2015-Jan-19 21:31N 53°20' E 007°10'0 0.0
2015-Jan-19 20:31N 53°20' E 007°10'0 0.0
2015-Jan-19 19:31N 53°20' E 007°10'0 0.0
2015-Jan-19 18:31N 53°20' E 007°10'0 0.0
2015-Jan-19 17:31N 53°20' E 007°10'0 0.0
2015-Jan-19 16:31N 53°20' E 007°10'0 0.0
2015-Jan-19 15:31N 53°20' E 007°10'0 0.0
2015-Jan-19 14:31N 53°20' E 007°10'0 0.0
2015-Jan-19 13:31N 53°20' E 007°10'0 0.0
2015-Jan-19 12:31N 53°20' E 007°10'0 0.0
2015-Jan-19 11:31N 53°20' E 007°10'0 0.0
2015-Jan-19 10:31N 53°20' E 007°10'0 0.1
2015-Jan-19 09:33N 53°20' E 007°10'7 6.5
2015-Jan-19 08:33N 53°21' E 006°59'1212.3
2015-Jan-19 07:33N 53°31' E 006°46'1212.4
2015-Jan-19 06:33N 53°37' E 006°28'1110.6
2015-Jan-19 05:33N 53°38' E 006°10'1313.5
2015-Jan-19 04:33N 53°42' E 005°48'1615.8
2015-Jan-19 03:33N 53°55' E 005°35'1616.0
2015-Jan-19 02:33N 53°59' E 005°08'1615.5
2015-Jan-19 01:32N 54°00' E 004°41'14315.3
2015-Jan-18 16:14N 53°35' E 000°43'1115.8
2015-Jan-18 15:33N 53°32' E 000°26'1111.6
2015-Jan-18 14:33N 53°34' E 000°06'6 6.3
2015-Jan-18 13:32N 53°35' W 000°04'0 0.0
2015-Jan-18 12:32N 53°35' W 000°04'0 0.0
2015-Jan-18 11:32N 53°35' W 000°04'0 0.0
2015-Jan-18 10:32N 53°35' W 000°04'0 0.0
2015-Jan-18 09:32N 53°35' W 000°04'0 0.0
2015-Jan-18 08:32N 53°35' W 000°04'0 0.0
2015-Jan-18 07:33N 53°35' W 000°04'0 0.0
2015-Jan-18 06:32N 53°35' W 000°04'0 0.0
2015-Jan-18 05:32N 53°35' W 000°04'0 0.0
2015-Jan-18 04:32N 53°35' W 000°04'0 0.0
2015-Jan-18 03:32N 53°35' W 000°04'0 0.0
2015-Jan-18 02:26N 53°35' W 000°04'0 0.0
2015-Jan-18 01:32N 53°35' W 000°04'0 0.0
2015-Jan-18 00:29N 53°35' W 000°04'0 0.0
2015-Jan-17 23:32N 53°35' W 000°04'0 0.0
2015-Jan-17 22:32N 53°35' W 000°04'0 0.0
2015-Jan-17 21:32N 53°35' W 000°04'0 0.0
2015-Jan-17 20:32N 53°35' W 000°04'0 0.0
2015-Jan-17 19:32N 53°35' W 000°04'0 0.0
2015-Jan-17 18:32N 53°35' W 000°04'0 0.0
2015-Jan-17 17:32N 53°35' W 000°04'0 0.0
2015-Jan-17 16:32N 53°35' W 000°04'0 0.0
2015-Jan-17 15:32N 53°35' W 000°04'0 0.2
2015-Jan-17 14:33N 53°35' W 000°04'9 8.9
2015-Jan-17 13:34N 53°33' E 000°11'9 9.3
2015-Jan-17 12:33N 53°34' E 000°26'10 8.9
2015-Jan-17 11:28N 53°34' E 000°43'3 3.1
2015-Jan-17 10:32N 53°34' E 000°48'14013.9
2015-Jan-17 00:27N 54°03' E 004°40'1314.1
2015-Jan-16 23:33N 54°00' E 005°01'1413.8
2015-Jan-16 22:32N 53°57' E 005°24'1414.1
2015-Jan-16 21:33N 53°54' E 005°47'1414.1
2015-Jan-16 20:33N 53°51' E 006°10'1312.8
2015-Jan-16 19:32N 53°40' E 006°22'1010.3
2015-Jan-16 18:33N 53°35' E 006°37'1212.2
2015-Jan-16 17:34N 53°27' E 006°53'1010.3
2015-Jan-16 16:33N 53°19' E 007°04'5 4.6
2015-Jan-16 15:32N 53°20' E 007°11'0 0.1
2015-Jan-16 14:33N 53°20' E 007°11'0 0.4
2015-Jan-16 13:32N 53°21' E 007°12'0 0.0
2015-Jan-16 12:32N 53°21' E 007°12'0 0.0
2015-Jan-16 11:32N 53°21' E 007°12'0 0.0
2015-Jan-16 10:32N 53°21' E 007°12'0 0.0
2015-Jan-16 09:32N 53°21' E 007°12'0 0.0
2015-Jan-16 08:32N 53°21' E 007°12'0 0.0
2015-Jan-16 07:32N 53°21' E 007°12'0 0.0
2015-Jan-16 06:32N 53°21' E 007°12'0 0.0
2015-Jan-16 05:32N 53°21' E 007°12'0 0.0
2015-Jan-16 04:32N 53°21' E 007°12'0 0.0
2015-Jan-16 03:32N 53°21' E 007°12'0 0.0
2015-Jan-16 02:32N 53°21' E 007°12'0 0.0
2015-Jan-16 01:32N 53°21' E 007°12'0 0.0
2015-Jan-16 00:32N 53°21' E 007°12'0 0.0
2015-Jan-15 23:32N 53°21' E 007°12'0 0.0
2015-Jan-15 22:32N 53°21' E 007°12'0 0.0
2015-Jan-15 21:32N 53°21' E 007°12'0 0.0
2015-Jan-15 20:32N 53°21' E 007°12'0 0.0
2015-Jan-15 19:32N 53°21' E 007°12'0 0.2
2015-Jan-15 18:33N 53°20' E 007°12'3 2.6
2015-Jan-15 17:33N 53°20' E 007°07'9 9.2
2015-Jan-15 16:33N 53°26' E 006°55'1414.5
2015-Jan-15 15:34N 53°35' E 006°37'1312.5
2015-Jan-15 14:34N 53°39' E 006°17'  

Dump ship's entire track history